Moose River, Canada
Current Conditions -  °F | °C
As of 3:00 AM on Thursday 18 Dec 2014 (Local Time) from CYMO Reporting Station
Clear Clear  
Wind Chill: -16°   Ceiling: Unl
Heat Index: -2°   Visibility: 9mi
Dew Point: -6°   Wind: 7mph
Humidity: 85%   Direction: 300°WNW
Pressure: 30.26"   Gusts: NA
Location:  50.8°N, 81.28°W
Report Text: CYMO 180800Z AUTO 30006KT 9SM CLR M19/M21 A3026 RMK SLP247
Loading
Personal Weather Stations






























Interactive Weather Map New forecast layout! Learn more

10-Day Weather Forecast

Advertisements
Track Severe Weather on mobile